Terminal Aerodrome Forecast
Issued by NWS Shreveport, LA

Home | Current Version | Previous Version | Text Only | Print | Product List | Glossary On
Versions: 1 2 3 4 5 6 7 8 9 10 11 12 13 14 15 16
000
FTUS44 KSHV 281100 CCA
TAFLFK
TAF COR
KLFK 281144Z 2812/2912 34006KT P6SM -RA FEW007 SCT011 OVC021
      TEMPO 2812/2815 1 1/2SM SHRA BR OVC007
     FM281800 34008KT 3SM -SHRA BR BKN008 OVC015
     FM290300 00000KT 4SM BR OVC015
     FM290900 06003KT 4SM BR OVC001=

USA.gov is the U.S. government's official web portal to all federal, state and local government web resources and services.